sensor_id;sensor_type;location;lat;lon;timestamp;P1;durP1;ratioP1;P2;durP2;ratioP2
37383;SDS011;23258;49.718;11.082;2023-03-01T00:00:46;9.20;;;8.00;;
37383;SDS011;23258;49.718;11.082;2023-03-01T00:03:15;8.73;;;7.83;;
37383;SDS011;23258;49.718;11.082;2023-03-01T00:05:45;11.53;;;8.00;;
37383;SDS011;23258;49.718;11.082;2023-03-01T00:08:15;10.67;;;8.13;;
37383;SDS011;23258;49.718;11.082;2023-03-01T00:10:45;9.63;;;8.50;;
37383;SDS011;23258;49.718;11.082;2023-03-01T00:13:14;11.80;;;8.27;;
37383;SDS011;23258;49.718;11.082;2023-03-01T00:15:46;12.67;;;8.07;;
37383;SDS011;23258;49.718;11.082;2023-03-01T00:18:16;12.07;;;8.30;;
37383;SDS011;23258;49.718;11.082;2023-03-01T00:20:49;10.50;;;8.73;;
37383;SDS011;23258;49.718;11.082;2023-03-01T00:23:18;10.13;;;8.13;;
37383;SDS011;23258;49.718;11.082;2023-03-01T00:25:48;8.67;;;7.83;;
37383;SDS011;23258;49.718;11.082;2023-03-01T00:28:18;9.17;;;7.93;;
37383;SDS011;23258;49.718;11.082;2023-03-01T00:30:50;14.40;;;8.60;;
37383;SDS011;23258;49.718;11.082;2023-03-01T00:33:20;8.50;;;7.37;;
37383;SDS011;23258;49.718;11.082;2023-03-01T00:35:50;11.17;;;8.47;;
37383;SDS011;23258;49.718;11.082;2023-03-01T00:38:20;9.87;;;8.33;;
37383;SDS011;23258;49.718;11.082;2023-03-01T00:40:49;10.33;;;8.80;;
37383;SDS011;23258;49.718;11.082;2023-03-01T00:43:20;9.40;;;8.33;;
37383;SDS011;23258;49.718;11.082;2023-03-01T00:45:53;10.33;;;8.43;;
37383;SDS011;23258;49.718;11.082;2023-03-01T00:48:22;13.30;;;9.40;;
37383;SDS011;23258;49.718;11.082;2023-03-01T00:50:52;10.57;;;7.53;;
37383;SDS011;23258;49.718;11.082;2023-03-01T00:53:22;12.07;;;8.60;;
37383;SDS011;23258;49.718;11.082;2023-03-01T00:55:51;13.60;;;9.07;;
37383;SDS011;23258;49.718;11.082;2023-03-01T00:58:21;10.40;;;8.67;;
37383;SDS011;23258;49.718;11.082;2023-03-01T01:00:53;10.30;;;8.93;;
37383;SDS011;23258;49.718;11.082;2023-03-01T01:03:23;9.33;;;8.00;;
37383;SDS011;23258;49.718;11.082;2023-03-01T01:05:53;11.37;;;8.43;;
37383;SDS011;23258;49.718;11.082;2023-03-01T01:08:23;12.43;;;9.13;;
37383;SDS011;23258;49.718;11.082;2023-03-01T01:10:53;11.73;;;7.90;;
37383;SDS011;23258;49.718;11.082;2023-03-01T01:13:22;9.50;;;7.60;;
37383;SDS011;23258;49.718;11.082;2023-03-01T01:15:54;11.87;;;8.20;;
37383;SDS011;23258;49.718;11.082;2023-03-01T01:18:29;11.80;;;8.70;;
37383;SDS011;23258;49.718;11.082;2023-03-01T01:21:02;9.00;;;7.57;;
37383;SDS011;23258;49.718;11.082;2023-03-01T01:23:32;9.33;;;8.40;;
37383;SDS011;23258;49.718;11.082;2023-03-01T01:26:05;10.67;;;8.43;;
37383;SDS011;23258;49.718;11.082;2023-03-01T01:28:35;12.27;;;8.87;;
37383;SDS011;23258;49.718;11.082;2023-03-01T01:31:07;12.20;;;8.67;;
37383;SDS011;23258;49.718;11.082;2023-03-01T01:33:37;9.60;;;8.30;;
37383;SDS011;23258;49.718;11.082;2023-03-01T01:36:08;11.63;;;8.23;;
37383;SDS011;23258;49.718;11.082;2023-03-01T01:38:38;10.97;;;9.00;;
37383;SDS011;23258;49.718;11.082;2023-03-01T01:41:09;12.07;;;8.37;;
37383;SDS011;23258;49.718;11.082;2023-03-01T01:43:39;9.10;;;7.70;;
37383;SDS011;23258;49.718;11.082;2023-03-01T01:46:16;10.23;;;8.03;;
37383;SDS011;23258;49.718;11.082;2023-03-01T01:48:48;14.23;;;8.03;;
37383;SDS011;23258;49.718;11.082;2023-03-01T01:51:20;10.67;;;7.87;;
37383;SDS011;23258;49.718;11.082;2023-03-01T01:53:53;11.97;;;8.67;;
37383;SDS011;23258;49.718;11.082;2023-03-01T01:56:23;8.50;;;7.70;;
37383;SDS011;23258;49.718;11.082;2023-03-01T01:58:53;9.63;;;7.57;;
37383;SDS011;23258;49.718;11.082;2023-03-01T02:01:27;11.30;;;8.37;;
37383;SDS011;23258;49.718;11.082;2023-03-01T02:03:56;10.83;;;8.60;;
37383;SDS011;23258;49.718;11.082;2023-03-01T02:06:27;9.40;;;7.57;;
37383;SDS011;23258;49.718;11.082;2023-03-01T02:08:59;11.50;;;9.03;;
37383;SDS011;23258;49.718;11.082;2023-03-01T02:11:29;9.80;;;7.63;;
37383;SDS011;23258;49.718;11.082;2023-03-01T02:14:00;9.87;;;7.90;;
37383;SDS011;23258;49.718;11.082;2023-03-01T02:16:32;9.80;;;8.20;;
37383;SDS011;23258;49.718;11.082;2023-03-01T02:19:03;9.93;;;8.07;;
37383;SDS011;23258;49.718;11.082;2023-03-01T02:21:37;10.73;;;8.23;;
37383;SDS011;23258;49.718;11.082;2023-03-01T02:24:10;12.37;;;8.47;;
37383;SDS011;23258;49.718;11.082;2023-03-01T02:26:50;12.20;;;8.67;;
37383;SDS011;23258;49.718;11.082;2023-03-01T02:29:24;11.87;;;8.80;;
37383;SDS011;23258;49.718;11.082;2023-03-01T02:31:54;13.60;;;8.00;;
37383;SDS011;23258;49.718;11.082;2023-03-01T02:34:26;10.57;;;7.93;;
37383;SDS011;23258;49.718;11.082;2023-03-01T02:36:57;9.43;;;7.47;;
37383;SDS011;23258;49.718;11.082;2023-03-01T02:39:31;11.67;;;8.43;;
37383;SDS011;23258;49.718;11.082;2023-03-01T02:42:02;11.53;;;8.00;;
37383;SDS011;23258;49.718;11.082;2023-03-01T02:44:35;11.87;;;8.47;;
37383;SDS011;23258;49.718;11.082;2023-03-01T02:47:04;11.30;;;8.17;;
37383;SDS011;23258;49.718;11.082;2023-03-01T02:49:34;9.90;;;8.03;;
37383;SDS011;23258;49.718;11.082;2023-03-01T02:52:08;8.93;;;7.77;;
37383;SDS011;23258;49.718;11.082;2023-03-01T02:54:42;12.83;;;9.00;;
37383;SDS011;23258;49.718;11.082;2023-03-01T02:57:14;10.13;;;8.37;;
37383;SDS011;23258;49.718;11.082;2023-03-01T02:59:47;15.57;;;9.17;;
37383;SDS011;23258;49.718;11.082;2023-03-01T03:02:18;11.10;;;8.10;;
37383;SDS011;23258;49.718;11.082;2023-03-01T03:05:17;10.67;;;7.93;;
37383;SDS011;23258;49.718;11.082;2023-03-01T03:07:50;12.27;;;8.70;;
37383;SDS011;23258;49.718;11.082;2023-03-01T03:10:20;10.23;;;8.43;;
37383;SDS011;23258;49.718;11.082;2023-03-01T03:12:50;11.47;;;8.30;;
37383;SDS011;23258;49.718;11.082;2023-03-01T03:15:23;9.70;;;8.53;;
37383;SDS011;23258;49.718;11.082;2023-03-01T03:17:55;10.33;;;8.70;;
37383;SDS011;23258;49.718;11.082;2023-03-01T03:20:26;10.40;;;8.13;;
37383;SDS011;23258;49.718;11.082;2023-03-01T03:22:56;10.73;;;8.07;;
37383;SDS011;23258;49.718;11.082;2023-03-01T03:25:26;11.97;;;8.93;;
37383;SDS011;23258;49.718;11.082;2023-03-01T03:27:56;12.70;;;8.53;;
37383;SDS011;23258;49.718;11.082;2023-03-01T03:30:29;8.73;;;7.83;;
37383;SDS011;23258;49.718;11.082;2023-03-01T03:32:59;10.87;;;8.73;;
37383;SDS011;23258;49.718;11.082;2023-03-01T03:35:30;10.33;;;8.27;;
37383;SDS011;23258;49.718;11.082;2023-03-01T03:38:01;11.53;;;8.27;;
37383;SDS011;23258;49.718;11.082;2023-03-01T03:40:34;11.17;;;8.03;;
37383;SDS011;23258;49.718;11.082;2023-03-01T03:43:04;10.20;;;8.37;;
37383;SDS011;23258;49.718;11.082;2023-03-01T03:45:36;11.63;;;9.23;;
37383;SDS011;23258;49.718;11.082;2023-03-01T03:48:07;12.13;;;9.13;;
37383;SDS011;23258;49.718;11.082;2023-03-01T03:50:37;11.57;;;8.27;;
37383;SDS011;23258;49.718;11.082;2023-03-01T03:53:08;11.40;;;8.00;;
37383;SDS011;23258;49.718;11.082;2023-03-01T03:55:38;10.53;;;8.80;;
37383;SDS011;23258;49.718;11.082;2023-03-01T03:58:09;12.87;;;9.00;;
37383;SDS011;23258;49.718;11.082;2023-03-01T04:00:42;11.43;;;8.83;;
37383;SDS011;23258;49.718;11.082;2023-03-01T04:03:12;10.03;;;8.43;;
37383;SDS011;23258;49.718;11.082;2023-03-01T04:05:43;12.33;;;8.57;;
37383;SDS011;23258;49.718;11.082;2023-03-01T04:08:12;13.53;;;8.90;;
37383;SDS011;23258;49.718;11.082;2023-03-01T04:10:43;11.70;;;8.53;;
37383;SDS011;23258;49.718;11.082;2023-03-01T04:13:15;10.60;;;8.47;;
37383;SDS011;23258;49.718;11.082;2023-03-01T04:15:48;9.60;;;8.30;;
37383;SDS011;23258;49.718;11.082;2023-03-01T04:18:21;12.03;;;8.77;;
37383;SDS011;23258;49.718;11.082;2023-03-01T04:20:52;14.53;;;8.73;;
37383;SDS011;23258;49.718;11.082;2023-03-01T04:23:22;12.50;;;8.63;;
37383;SDS011;23258;49.718;11.082;2023-03-01T04:25:52;14.03;;;9.27;;
37383;SDS011;23258;49.718;11.082;2023-03-01T04:28:24;10.73;;;8.60;;
37383;SDS011;23258;49.718;11.082;2023-03-01T04:30:57;11.83;;;8.33;;
37383;SDS011;23258;49.718;11.082;2023-03-01T04:33:27;10.50;;;8.90;;
37383;SDS011;23258;49.718;11.082;2023-03-01T04:35:56;14.13;;;9.43;;
37383;SDS011;23258;49.718;11.082;2023-03-01T04:38:26;12.87;;;9.30;;
37383;SDS011;23258;49.718;11.082;2023-03-01T04:40:56;11.40;;;8.63;;
37383;SDS011;23258;49.718;11.082;2023-03-01T04:43:26;15.03;;;9.57;;
37383;SDS011;23258;49.718;11.082;2023-03-01T04:46:02;10.40;;;9.27;;
37383;SDS011;23258;49.718;11.082;2023-03-01T04:48:32;10.90;;;8.23;;
37383;SDS011;23258;49.718;11.082;2023-03-01T04:51:02;10.70;;;8.73;;
37383;SDS011;23258;49.718;11.082;2023-03-01T04:53:32;12.37;;;9.40;;
37383;SDS011;23258;49.718;11.082;2023-03-01T04:56:05;10.73;;;8.47;;
37383;SDS011;23258;49.718;11.082;2023-03-01T04:58:35;11.57;;;8.77;;
37383;SDS011;23258;49.718;11.082;2023-03-01T05:01:11;14.20;;;8.27;;
37383;SDS011;23258;49.718;11.082;2023-03-01T05:03:42;10.73;;;8.50;;
37383;SDS011;23258;49.718;11.082;2023-03-01T05:06:12;13.47;;;9.40;;
37383;SDS011;23258;49.718;11.082;2023-03-01T05:08:42;13.90;;;8.67;;
37383;SDS011;23258;49.718;11.082;2023-03-01T05:11:12;12.00;;;8.83;;
37383;SDS011;23258;49.718;11.082;2023-03-01T05:13:41;13.20;;;9.60;;
37383;SDS011;23258;49.718;11.082;2023-03-01T05:16:13;9.67;;;8.40;;
37383;SDS011;23258;49.718;11.082;2023-03-01T05:18:44;10.87;;;8.53;;
37383;SDS011;23258;49.718;11.082;2023-03-01T05:21:14;12.57;;;9.17;;
37383;SDS011;23258;49.718;11.082;2023-03-01T05:23:44;14.20;;;9.67;;
37383;SDS011;23258;49.718;11.082;2023-03-01T05:26:14;13.20;;;9.13;;
37383;SDS011;23258;49.718;11.082;2023-03-01T05:28:54;13.13;;;9.60;;
37383;SDS011;23258;49.718;11.082;2023-03-01T05:31:28;11.23;;;9.37;;
37383;SDS011;23258;49.718;11.082;2023-03-01T05:33:59;10.77;;;8.53;;
37383;SDS011;23258;49.718;11.082;2023-03-01T05:36:28;11.80;;;9.40;;
37383;SDS011;23258;49.718;11.082;2023-03-01T05:38:58;14.00;;;9.63;;
37383;SDS011;23258;49.718;11.082;2023-03-01T05:41:28;13.90;;;9.93;;
37383;SDS011;23258;49.718;11.082;2023-03-01T05:43:57;9.70;;;8.67;;
37383;SDS011;23258;49.718;11.082;2023-03-01T05:46:29;16.60;;;10.30;;
37383;SDS011;23258;49.718;11.082;2023-03-01T05:48:59;12.57;;;9.80;;
37383;SDS011;23258;49.718;11.082;2023-03-01T05:51:30;12.50;;;9.40;;
37383;SDS011;23258;49.718;11.082;2023-03-01T05:54:00;9.50;;;8.60;;
37383;SDS011;23258;49.718;11.082;2023-03-01T05:56:32;12.30;;;9.23;;
37383;SDS011;23258;49.718;11.082;2023-03-01T05:59:02;12.37;;;9.00;;
37383;SDS011;23258;49.718;11.082;2023-03-01T06:01:35;10.57;;;9.07;;
37383;SDS011;23258;49.718;11.082;2023-03-01T06:04:05;11.33;;;9.07;;
37383;SDS011;23258;49.718;11.082;2023-03-01T06:06:35;13.60;;;10.27;;
37383;SDS011;23258;49.718;11.082;2023-03-01T06:09:06;16.73;;;9.90;;
37383;SDS011;23258;49.718;11.082;2023-03-01T06:11:36;10.53;;;9.10;;
37383;SDS011;23258;49.718;11.082;2023-03-01T06:14:06;13.20;;;9.70;;
37383;SDS011;23258;49.718;11.082;2023-03-01T06:16:42;12.77;;;9.70;;
37383;SDS011;23258;49.718;11.082;2023-03-01T06:19:11;12.63;;;8.97;;
37383;SDS011;23258;49.718;11.082;2023-03-01T06:21:41;9.40;;;8.40;;
37383;SDS011;23258;49.718;11.082;2023-03-01T06:24:10;10.27;;;8.83;;
37383;SDS011;23258;49.718;11.082;2023-03-01T06:26:40;11.83;;;8.77;;
37383;SDS011;23258;49.718;11.082;2023-03-01T06:29:10;15.37;;;9.60;;
37383;SDS011;23258;49.718;11.082;2023-03-01T06:31:43;14.00;;;9.63;;
37383;SDS011;23258;49.718;11.082;2023-03-01T06:34:13;12.07;;;8.77;;
37383;SDS011;23258;49.718;11.082;2023-03-01T06:36:43;10.70;;;9.03;;
37383;SDS011;23258;49.718;11.082;2023-03-01T06:39:12;12.10;;;9.17;;
37383;SDS011;23258;49.718;11.082;2023-03-01T06:41:43;13.10;;;9.83;;
37383;SDS011;23258;49.718;11.082;2023-03-01T06:44:12;13.13;;;10.17;;
37383;SDS011;23258;49.718;11.082;2023-03-01T06:46:44;15.50;;;10.00;;
37383;SDS011;23258;49.718;11.082;2023-03-01T06:49:14;13.47;;;10.03;;
37383;SDS011;23258;49.718;11.082;2023-03-01T06:51:44;14.20;;;9.77;;
37383;SDS011;23258;49.718;11.082;2023-03-01T06:54:13;12.43;;;9.93;;
37383;SDS011;23258;49.718;11.082;2023-03-01T06:56:46;14.83;;;10.33;;
37383;SDS011;23258;49.718;11.082;2023-03-01T06:59:16;14.17;;;9.30;;
37383;SDS011;23258;49.718;11.082;2023-03-01T07:01:48;11.20;;;9.27;;
37383;SDS011;23258;49.718;11.082;2023-03-01T07:04:18;13.00;;;9.00;;
37383;SDS011;23258;49.718;11.082;2023-03-01T07:06:47;14.07;;;9.93;;
37383;SDS011;23258;49.718;11.082;2023-03-01T07:09:21;12.10;;;9.73;;
37383;SDS011;23258;49.718;11.082;2023-03-01T07:11:51;12.13;;;9.47;;
37383;SDS011;23258;49.718;11.082;2023-03-01T07:14:20;11.77;;;8.90;;
37383;SDS011;23258;49.718;11.082;2023-03-01T07:16:53;13.90;;;9.40;;
37383;SDS011;23258;49.718;11.082;2023-03-01T07:19:23;13.53;;;9.27;;
37383;SDS011;23258;49.718;11.082;2023-03-01T07:21:53;11.00;;;8.70;;
37383;SDS011;23258;49.718;11.082;2023-03-01T07:24:22;15.17;;;9.63;;
37383;SDS011;23258;49.718;11.082;2023-03-01T07:26:52;13.73;;;8.87;;
37383;SDS011;23258;49.718;11.082;2023-03-01T07:29:22;12.23;;;8.93;;
37383;SDS011;23258;49.718;11.082;2023-03-01T07:31:54;10.80;;;9.03;;
37383;SDS011;23258;49.718;11.082;2023-03-01T07:34:27;10.87;;;9.37;;
37383;SDS011;23258;49.718;11.082;2023-03-01T07:36:57;11.07;;;8.67;;
37383;SDS011;23258;49.718;11.082;2023-03-01T07:39:26;12.27;;;9.13;;
37383;SDS011;23258;49.718;11.082;2023-03-01T07:41:56;10.90;;;8.60;;
37383;SDS011;23258;49.718;11.082;2023-03-01T07:44:26;11.17;;;7.77;;
37383;SDS011;23258;49.718;11.082;2023-03-01T07:46:59;13.63;;;9.63;;
37383;SDS011;23258;49.718;11.082;2023-03-01T07:49:29;12.67;;;9.07;;
37383;SDS011;23258;49.718;11.082;2023-03-01T07:51:58;13.60;;;9.20;;
37383;SDS011;23258;49.718;11.082;2023-03-01T07:54:28;11.40;;;8.70;;
37383;SDS011;23258;49.718;11.082;2023-03-01T07:56:57;13.90;;;9.13;;
37383;SDS011;23258;49.718;11.082;2023-03-01T07:59:27;13.33;;;9.07;;
37383;SDS011;23258;49.718;11.082;2023-03-01T08:01:59;11.03;;;9.03;;
37383;SDS011;23258;49.718;11.082;2023-03-01T08:04:29;10.67;;;9.57;;
37383;SDS011;23258;49.718;11.082;2023-03-01T08:06:59;11.87;;;9.13;;
37383;SDS011;23258;49.718;11.082;2023-03-01T08:09:29;14.20;;;8.90;;
37383;SDS011;23258;49.718;11.082;2023-03-01T08:11:58;10.57;;;8.63;;
37383;SDS011;23258;49.718;11.082;2023-03-01T08:14:28;10.70;;;8.83;;
37383;SDS011;23258;49.718;11.082;2023-03-01T08:17:00;12.63;;;9.13;;
37383;SDS011;23258;49.718;11.082;2023-03-01T08:19:31;9.30;;;8.37;;
37383;SDS011;23258;49.718;11.082;2023-03-01T08:22:01;10.53;;;8.57;;
37383;SDS011;23258;49.718;11.082;2023-03-01T08:24:30;12.10;;;8.40;;
37383;SDS011;23258;49.718;11.082;2023-03-01T08:27:00;15.33;;;9.20;;
37383;SDS011;23258;49.718;11.082;2023-03-01T08:29:30;10.73;;;9.23;;
37383;SDS011;23258;49.718;11.082;2023-03-01T08:32:02;12.60;;;8.83;;
37383;SDS011;23258;49.718;11.082;2023-03-01T08:34:32;14.53;;;9.33;;
37383;SDS011;23258;49.718;11.082;2023-03-01T08:37:02;10.70;;;8.30;;
37383;SDS011;23258;49.718;11.082;2023-03-01T08:39:31;10.83;;;7.67;;
37383;SDS011;23258;49.718;11.082;2023-03-01T08:42:01;10.90;;;8.60;;
37383;SDS011;23258;49.718;11.082;2023-03-01T08:44:31;9.20;;;7.93;;
37383;SDS011;23258;49.718;11.082;2023-03-01T08:47:04;9.90;;;7.80;;
37383;SDS011;23258;49.718;11.082;2023-03-01T08:49:34;11.83;;;8.47;;
37383;SDS011;23258;49.718;11.082;2023-03-01T08:52:03;10.47;;;8.37;;
37383;SDS011;23258;49.718;11.082;2023-03-01T08:54:33;10.97;;;8.33;;
37383;SDS011;23258;49.718;11.082;2023-03-01T08:57:02;8.80;;;7.93;;
37383;SDS011;23258;49.718;11.082;2023-03-01T08:59:32;14.70;;;8.77;;
37383;SDS011;23258;49.718;11.082;2023-03-01T09:02:08;12.30;;;8.10;;
37383;SDS011;23258;49.718;11.082;2023-03-01T09:04:39;9.53;;;8.27;;
37383;SDS011;23258;49.718;11.082;2023-03-01T09:07:09;11.77;;;8.37;;
37383;SDS011;23258;49.718;11.082;2023-03-01T09:09:39;10.17;;;8.53;;
37383;SDS011;23258;49.718;11.082;2023-03-01T09:12:09;11.27;;;8.53;;
37383;SDS011;23258;49.718;11.082;2023-03-01T09:14:39;11.83;;;8.77;;
37383;SDS011;23258;49.718;11.082;2023-03-01T09:17:11;10.13;;;9.13;;
37383;SDS011;23258;49.718;11.082;2023-03-01T09:19:40;12.70;;;9.27;;
37383;SDS011;23258;49.718;11.082;2023-03-01T09:22:10;10.63;;;8.80;;
37383;SDS011;23258;49.718;11.082;2023-03-01T09:24:39;13.20;;;9.40;;
37383;SDS011;23258;49.718;11.082;2023-03-01T09:27:09;10.55;;;8.52;;
37383;SDS011;23258;49.718;11.082;2023-03-01T09:29:41;10.90;;;8.27;;
37383;SDS011;23258;49.718;11.082;2023-03-01T09:32:13;9.38;;;8.18;;
37383;SDS011;23258;49.718;11.082;2023-03-01T09:34:42;12.97;;;8.33;;
37383;SDS011;23258;49.718;11.082;2023-03-01T09:37:37;12.30;;;8.10;;
37383;SDS011;23258;49.718;11.082;2023-03-01T09:40:11;11.95;;;7.57;;
37383;SDS011;23258;49.718;11.082;2023-03-01T09:42:46;11.20;;;7.47;;
37383;SDS011;23258;49.718;11.082;2023-03-01T09:45:21;10.32;;;8.35;;
37383;SDS011;23258;49.718;11.082;2023-03-01T09:47:55;12.00;;;8.23;;
37383;SDS011;23258;49.718;11.082;2023-03-01T09:50:26;9.60;;;8.10;;
37383;SDS011;23258;49.718;11.082;2023-03-01T09:52:59;11.38;;;7.80;;
37383;SDS011;23258;49.718;11.082;2023-03-01T09:55:31;9.73;;;7.65;;
37383;SDS011;23258;49.718;11.082;2023-03-01T09:58:02;8.07;;;7.32;;
37383;SDS011;23258;49.718;11.082;2023-03-01T10:00:36;13.02;;;9.95;;
37383;SDS011;23258;49.718;11.082;2023-03-01T10:03:16;7.82;;;6.75;;
37383;SDS011;23258;49.718;11.082;2023-03-01T10:05:48;8.82;;;7.43;;
37383;SDS011;23258;49.718;11.082;2023-03-01T10:08:24;9.10;;;7.35;;
37383;SDS011;23258;49.718;11.082;2023-03-01T10:10:58;8.90;;;7.65;;
37383;SDS011;23258;49.718;11.082;2023-03-01T10:13:29;9.82;;;7.05;;
37383;SDS011;23258;49.718;11.082;2023-03-01T10:16:03;8.40;;;7.13;;
37383;SDS011;23258;49.718;11.082;2023-03-01T10:18:37;10.73;;;7.03;;
37383;SDS011;23258;49.718;11.082;2023-03-01T10:21:11;9.68;;;7.25;;
37383;SDS011;23258;49.718;11.082;2023-03-01T10:23:43;13.23;;;7.05;;
37383;SDS011;23258;49.718;11.082;2023-03-01T10:26:28;7.65;;;6.95;;
37383;SDS011;23258;49.718;11.082;2023-03-01T10:29:01;7.95;;;7.05;;
37383;SDS011;23258;49.718;11.082;2023-03-01T10:31:36;9.20;;;6.72;;
37383;SDS011;23258;49.718;11.082;2023-03-01T10:34:13;9.57;;;7.22;;
37383;SDS011;23258;49.718;11.082;2023-03-01T10:36:44;8.75;;;6.75;;
37383;SDS011;23258;49.718;11.082;2023-03-01T10:39:17;8.23;;;6.90;;
37383;SDS011;23258;49.718;11.082;2023-03-01T10:41:57;9.88;;;6.45;;
37383;SDS011;23258;49.718;11.082;2023-03-01T10:44:35;10.02;;;7.40;;
37383;SDS011;23258;49.718;11.082;2023-03-01T10:47:12;8.80;;;7.28;;
37383;SDS011;23258;49.718;11.082;2023-03-01T10:52:30;8.93;;;7.75;;
37383;SDS011;23258;49.718;11.082;2023-03-01T10:55:01;12.40;;;7.90;;
37383;SDS011;23258;49.718;11.082;2023-03-01T10:57:36;8.80;;;7.65;;
37383;SDS011;23258;49.718;11.082;2023-03-01T11:00:16;10.23;;;7.20;;
37383;SDS011;23258;49.718;11.082;2023-03-01T11:02:48;10.27;;;7.70;;
37383;SDS011;23258;49.718;11.082;2023-03-01T11:05:22;10.27;;;8.13;;
37383;SDS011;23258;49.718;11.082;2023-03-01T11:07:58;8.63;;;6.85;;
37383;SDS011;23258;49.718;11.082;2023-03-01T11:10:28;11.90;;;7.65;;
37383;SDS011;23258;49.718;11.082;2023-03-01T11:13:08;9.93;;;7.15;;
37383;SDS011;23258;49.718;11.082;2023-03-01T11:15:38;9.70;;;7.50;;
37383;SDS011;23258;49.718;11.082;2023-03-01T11:18:17;9.07;;;7.35;;
37383;SDS011;23258;49.718;11.082;2023-03-01T11:20:59;9.88;;;7.75;;
37383;SDS011;23258;49.718;11.082;2023-03-01T11:23:33;8.98;;;6.85;;
37383;SDS011;23258;49.718;11.082;2023-03-01T11:26:04;8.18;;;6.85;;
37383;SDS011;23258;49.718;11.082;2023-03-01T11:28:37;7.22;;;6.50;;
37383;SDS011;23258;49.718;11.082;2023-03-01T11:31:09;8.77;;;7.38;;
37383;SDS011;23258;49.718;11.082;2023-03-01T11:33:42;9.45;;;6.82;;
37383;SDS011;23258;49.718;11.082;2023-03-01T11:36:16;7.10;;;6.40;;
37383;SDS011;23258;49.718;11.082;2023-03-01T11:38:51;7.55;;;6.63;;
37383;SDS011;23258;49.718;11.082;2023-03-01T11:41:23;9.07;;;7.50;;
37383;SDS011;23258;49.718;11.082;2023-03-01T11:43:56;8.85;;;7.05;;
37383;SDS011;23258;49.718;11.082;2023-03-01T11:49:37;9.02;;;7.70;;
37383;SDS011;23258;49.718;11.082;2023-03-01T11:52:13;7.68;;;6.63;;
37383;SDS011;23258;49.718;11.082;2023-03-01T11:54:51;9.02;;;7.25;;
37383;SDS011;23258;49.718;11.082;2023-03-01T11:57:27;9.23;;;7.47;;
37383;SDS011;23258;49.718;11.082;2023-03-01T12:00:19;8.23;;;6.95;;
37383;SDS011;23258;49.718;11.082;2023-03-01T12:03:00;11.73;;;7.05;;
37383;SDS011;23258;49.718;11.082;2023-03-01T12:05:39;10.00;;;7.97;;
37383;SDS011;23258;49.718;11.082;2023-03-01T12:08:14;10.07;;;7.30;;
37383;SDS011;23258;49.718;11.082;2023-03-01T12:10:52;9.90;;;7.15;;
37383;SDS011;23258;49.718;11.082;2023-03-01T12:13:36;10.63;;;8.20;;
37383;SDS011;23258;49.718;11.082;2023-03-01T12:16:15;8.02;;;7.22;;
37383;SDS011;23258;49.718;11.082;2023-03-01T12:21:59;9.18;;;7.78;;
37383;SDS011;23258;49.718;11.082;2023-03-01T12:24:44;8.88;;;7.78;;
37383;SDS011;23258;49.718;11.082;2023-03-01T12:27:23;9.00;;;7.32;;
37383;SDS011;23258;49.718;11.082;2023-03-01T12:29:54;8.68;;;7.72;;
37383;SDS011;23258;49.718;11.082;2023-03-01T12:32:29;9.75;;;7.28;;
37383;SDS011;23258;49.718;11.082;2023-03-01T12:35:05;8.90;;;7.97;;
37383;SDS011;23258;49.718;11.082;2023-03-01T12:37:37;8.18;;;7.20;;
37383;SDS011;23258;49.718;11.082;2023-03-01T12:40:15;8.27;;;7.35;;
37383;SDS011;23258;49.718;11.082;2023-03-01T12:42:52;8.40;;;7.40;;
37383;SDS011;23258;49.718;11.082;2023-03-01T12:45:28;10.25;;;7.32;;
37383;SDS011;23258;49.718;11.082;2023-03-01T12:48:16;8.48;;;7.13;;
37383;SDS011;23258;49.718;11.082;2023-03-01T12:50:51;8.77;;;7.40;;
37383;SDS011;23258;49.718;11.082;2023-03-01T12:53:24;8.50;;;7.15;;
37383;SDS011;23258;49.718;11.082;2023-03-01T12:55:55;8.32;;;7.32;;
37383;SDS011;23258;49.718;11.082;2023-03-01T12:58:29;7.32;;;6.63;;
37383;SDS011;23258;49.718;11.082;2023-03-01T13:01:18;9.07;;;7.50;;
37383;SDS011;23258;49.718;11.082;2023-03-01T13:03:55;8.52;;;7.70;;
37383;SDS011;23258;49.718;11.082;2023-03-01T13:06:30;7.10;;;6.38;;
37383;SDS011;23258;49.718;11.082;2023-03-01T13:09:11;8.85;;;7.07;;
37383;SDS011;23258;49.718;11.082;2023-03-01T13:11:44;9.85;;;7.60;;
37383;SDS011;23258;49.718;11.082;2023-03-01T13:17:01;10.57;;;7.28;;
37383;SDS011;23258;49.718;11.082;2023-03-01T13:19:30;7.97;;;6.68;;
37383;SDS011;23258;49.718;11.082;2023-03-01T13:22:24;10.40;;;7.72;;
37383;SDS011;23258;49.718;11.082;2023-03-01T13:25:00;8.35;;;7.40;;
37383;SDS011;23258;49.718;11.082;2023-03-01T13:27:30;9.43;;;8.20;;
37383;SDS011;23258;49.718;11.082;2023-03-01T13:29:59;10.15;;;7.75;;
37383;SDS011;23258;49.718;11.082;2023-03-01T13:32:35;8.68;;;7.40;;
37383;SDS011;23258;49.718;11.082;2023-03-01T13:37:56;9.20;;;6.85;;
37383;SDS011;23258;49.718;11.082;2023-03-01T13:41:01;7.10;;;6.38;;
37383;SDS011;23258;49.718;11.082;2023-03-01T13:43:31;7.68;;;6.97;;
37383;SDS011;23258;49.718;11.082;2023-03-01T13:46:02;8.05;;;6.80;;
37383;SDS011;23258;49.718;11.082;2023-03-01T13:48:37;8.55;;;6.57;;
37383;SDS011;23258;49.718;11.082;2023-03-01T13:51:09;7.65;;;6.88;;
37383;SDS011;23258;49.718;11.082;2023-03-01T13:53:40;9.38;;;7.30;;
37383;SDS011;23258;49.718;11.082;2023-03-01T13:56:14;9.85;;;7.80;;
37383;SDS011;23258;49.718;11.082;2023-03-01T13:58:47;8.32;;;6.88;;
37383;SDS011;23258;49.718;11.082;2023-03-01T14:01:21;8.55;;;6.93;;
37383;SDS011;23258;49.718;11.082;2023-03-01T14:03:52;8.80;;;6.93;;
37383;SDS011;23258;49.718;11.082;2023-03-01T14:06:22;7.20;;;6.45;;
37383;SDS011;23258;49.718;11.082;2023-03-01T14:09:00;8.20;;;7.40;;
37383;SDS011;23258;49.718;11.082;2023-03-01T14:14:35;8.88;;;6.28;;
37383;SDS011;23258;49.718;11.082;2023-03-01T14:20:00;9.70;;;6.93;;
37383;SDS011;23258;49.718;11.082;2023-03-01T14:22:33;6.63;;;5.93;;
37383;SDS011;23258;49.718;11.082;2023-03-01T14:25:05;8.57;;;6.28;;
37383;SDS011;23258;49.718;11.082;2023-03-01T14:27:35;8.52;;;6.80;;
37383;SDS011;23258;49.718;11.082;2023-03-01T14:30:14;8.10;;;6.18;;
37383;SDS011;23258;49.718;11.082;2023-03-01T14:32:51;8.30;;;6.70;;
37383;SDS011;23258;49.718;11.082;2023-03-01T14:35:23;7.57;;;6.65;;
37383;SDS011;23258;49.718;11.082;2023-03-01T14:37:53;9.05;;;6.75;;
37383;SDS011;23258;49.718;11.082;2023-03-01T14:40:23;6.63;;;5.93;;
37383;SDS011;23258;49.718;11.082;2023-03-01T14:42:53;7.55;;;6.75;;
37383;SDS011;23258;49.718;11.082;2023-03-01T14:45:27;7.45;;;6.18;;
37383;SDS011;23258;49.718;11.082;2023-03-01T14:47:58;6.50;;;5.88;;
37383;SDS011;23258;49.718;11.082;2023-03-01T14:50:29;7.97;;;6.13;;
37383;SDS011;23258;49.718;11.082;2023-03-01T14:53:00;8.05;;;6.55;;
37383;SDS011;23258;49.718;11.082;2023-03-01T14:55:31;7.82;;;6.45;;
37383;SDS011;23258;49.718;11.082;2023-03-01T14:58:02;8.70;;;7.22;;
37383;SDS011;23258;49.718;11.082;2023-03-01T15:00:35;8.18;;;6.90;;
37383;SDS011;23258;49.718;11.082;2023-03-01T15:03:06;9.23;;;7.00;;
37383;SDS011;23258;49.718;11.082;2023-03-01T15:05:40;7.93;;;6.80;;
37383;SDS011;23258;49.718;11.082;2023-03-01T15:08:14;7.30;;;6.32;;
37383;SDS011;23258;49.718;11.082;2023-03-01T15:10:55;7.05;;;6.32;;
37383;SDS011;23258;49.718;11.082;2023-03-01T15:13:25;7.63;;;6.72;;
37383;SDS011;23258;49.718;11.082;2023-03-01T15:16:02;8.02;;;6.45;;